createdAt,value
2018-04-18T00:02:49.298Z,9.50
2018-04-18T00:07:23.246Z,9.40
2018-04-18T00:11:56.464Z,9.30
2018-04-18T00:16:29.677Z,9.70
2018-04-18T00:21:02.878Z,9.70
2018-04-18T00:25:36.086Z,9.60
2018-04-18T00:30:09.351Z,9.70
2018-04-18T00:34:42.738Z,9.40
2018-04-18T00:39:15.934Z,9.20
2018-04-18T00:43:49.147Z,9.20
2018-04-18T00:48:22.357Z,9.00
2018-04-18T00:52:55.574Z,8.90
2018-04-18T00:57:28.786Z,9.00
2018-04-18T01:02:02.027Z,9.20
2018-04-18T01:06:35.965Z,9.20
2018-04-18T01:11:09.195Z,9.20
2018-04-18T01:15:42.396Z,9.20
2018-04-18T01:20:15.597Z,9.10
2018-04-18T01:24:48.809Z,9.10
2018-04-18T01:29:22.017Z,8.90
2018-04-18T01:33:55.231Z,8.70
2018-04-18T01:38:28.474Z,8.40
2018-04-18T01:43:01.646Z,8.50
2018-04-18T01:47:34.874Z,8.70
2018-04-18T01:52:08.067Z,8.50
2018-04-18T01:56:41.294Z,8.40
2018-04-18T02:01:14.500Z,8.30
2018-04-18T02:05:47.717Z,8.40
2018-04-18T02:10:20.935Z,8.60
2018-04-18T02:14:54.886Z,8.20
2018-04-18T02:19:28.104Z,8.20
2018-04-18T02:24:01.293Z,8.10
2018-04-18T02:28:34.802Z,8.20
2018-04-18T02:33:08.091Z,8.30
2018-04-18T02:37:42.053Z,8.00
2018-04-18T02:42:15.231Z,7.90
2018-04-18T02:46:49.205Z,8.20
2018-04-18T02:51:22.386Z,8.10
2018-04-18T02:55:55.596Z,8.00
2018-04-18T03:00:28.815Z,7.90
2018-04-18T03:05:01.996Z,7.80
2018-04-18T03:09:35.205Z,7.80
2018-04-18T03:14:08.454Z,7.70
2018-04-18T03:18:41.658Z,7.70
2018-04-18T03:23:14.855Z,7.50
2018-04-18T03:27:48.079Z,7.50
2018-04-18T03:32:21.258Z,7.40
2018-04-18T03:36:54.470Z,7.50
2018-04-18T03:41:27.687Z,7.40
2018-04-18T03:46:00.926Z,7.20
2018-04-18T03:50:34.179Z,7.20
2018-04-18T03:55:07.408Z,7.20
2018-04-18T03:59:40.693Z,7.10
2018-04-18T04:04:13.946Z,7.00
2018-04-18T04:08:47.107Z,7.00
2018-04-18T04:13:20.375Z,7.00
2018-04-18T04:18:05.334Z,7.00
2018-04-18T04:22:50.412Z,7.00
2018-04-18T04:27:23.594Z,7.00
2018-04-18T04:31:56.806Z,6.90
2018-04-18T04:36:29.991Z,6.90
2018-04-18T04:41:03.209Z,6.90
2018-04-18T04:45:37.264Z,6.90
2018-04-18T04:50:11.278Z,6.90
2018-04-18T04:54:44.466Z,6.80
2018-04-18T04:59:17.931Z,6.80
2018-04-18T05:03:51.168Z,6.90
2018-04-18T05:08:25.173Z,6.70
2018-04-18T05:12:59.140Z,6.70
2018-04-18T05:17:32.386Z,6.60
2018-04-18T05:22:05.651Z,6.90
2018-04-18T05:26:38.942Z,7.10
2018-04-18T05:31:12.190Z,7.20
2018-04-18T05:35:45.497Z,7.10
2018-04-18T05:40:18.803Z,7.30
2018-04-18T05:44:52.054Z,7.40
2018-04-18T05:49:25.301Z,7.70
2018-04-18T05:53:58.515Z,7.80
2018-04-18T05:58:32.407Z,8.00
2018-04-18T06:03:06.395Z,8.30
2018-04-18T06:07:39.611Z,8.30
2018-04-18T06:12:13.443Z,8.50
2018-04-18T06:16:47.422Z,9.30
2018-04-18T06:21:20.636Z,9.20
2018-04-18T06:25:54.066Z,9.50
2018-04-18T06:30:27.267Z,9.90
2018-04-18T06:35:00.586Z,10.20
2018-04-18T06:39:34.359Z,10.50
2018-04-18T06:44:07.568Z,11.00
2018-04-18T06:48:40.744Z,11.50
2018-04-18T06:53:14.705Z,12.20
2018-04-18T06:57:49.260Z,12.10
2018-04-18T07:02:22.703Z,12.60
2018-04-18T07:06:56.866Z,13.00
2018-04-18T07:11:30.456Z,13.40
2018-04-18T07:16:05.018Z,14.40
2018-04-18T07:20:38.238Z,14.30
2018-04-18T07:25:11.478Z,15.00
2018-04-18T07:29:46.211Z,15.40
2018-04-18T07:34:19.431Z,15.30
2018-04-18T07:38:52.657Z,16.20
2018-04-18T07:43:26.602Z,17.50
2018-04-18T07:48:00.558Z,18.30
2018-04-18T07:52:34.698Z,18.20
2018-04-18T07:57:07.886Z,19.50
2018-04-18T08:01:41.232Z,20.50
2018-04-18T08:06:14.436Z,21.40
2018-04-18T08:10:47.657Z,22.40
2018-04-18T08:15:20.844Z,22.60
2018-04-18T08:19:54.598Z,24.30
2018-04-18T08:24:27.763Z,25.30
2018-04-18T08:29:00.954Z,24.80
2018-04-18T08:33:34.151Z,26.50
2018-04-18T08:38:07.339Z,27.30
2018-04-18T08:42:41.280Z,27.40
2018-04-18T08:47:14.490Z,27.30
2018-04-18T08:51:47.678Z,26.50
2018-04-18T08:56:20.887Z,27.10
2018-04-18T09:00:54.851Z,28.20
2018-04-18T09:05:28.025Z,28.10
2018-04-18T09:10:01.227Z,28.80
2018-04-18T09:14:34.397Z,28.50
2018-04-18T09:19:07.597Z,28.30
2018-04-18T09:23:40.772Z,28.20
2018-04-18T09:28:13.970Z,28.20
2018-04-18T09:32:47.223Z,27.70
2018-04-18T09:37:20.407Z,27.30
2018-04-18T09:41:53.664Z,27.80
2018-04-18T09:46:27.674Z,28.20
2018-04-18T09:51:01.661Z,29.00
2018-04-18T09:55:34.899Z,28.80
2018-04-18T10:00:08.886Z,28.00
2018-04-18T10:04:45.065Z,27.90
2018-04-18T10:09:18.260Z,28.20
2018-04-18T10:13:51.446Z,28.70
2018-04-18T10:18:25.255Z,29.60
2018-04-18T10:22:59.270Z,29.40
2018-04-18T10:27:32.475Z,29.40
2018-04-18T10:32:05.745Z,28.30
2018-04-18T10:36:38.996Z,28.50
2018-04-18T10:41:12.967Z,28.20
2018-04-18T10:45:46.189Z,28.20
2018-04-18T10:50:19.407Z,28.80
2018-04-18T10:54:52.643Z,29.00
2018-04-18T10:59:26.659Z,29.20
2018-04-18T11:03:59.870Z,29.20
2018-04-18T11:08:33.095Z,28.80
2018-04-18T11:13:07.109Z,29.40
2018-04-18T11:17:41.104Z,29.60
2018-04-18T11:22:14.314Z,29.60
2018-04-18T11:26:47.553Z,29.80
2018-04-18T11:31:21.535Z,30.20
2018-04-18T11:35:54.773Z,30.10
2018-04-18T11:40:28.048Z,29.70
2018-04-18T11:45:01.234Z,29.20
2018-04-18T11:49:34.470Z,29.20
2018-04-18T11:54:07.674Z,28.80
2018-04-18T11:58:40.911Z,29.10
2018-04-18T12:03:14.943Z,30.60
2018-04-18T12:07:48.917Z,30.30
2018-04-18T12:12:22.121Z,30.30
2018-04-18T12:16:55.332Z,30.20
2018-04-18T12:21:28.513Z,30.50
2018-04-18T12:26:01.729Z,30.80
2018-04-18T12:30:34.944Z,30.70
2018-04-18T12:35:08.151Z,30.20
2018-04-18T12:39:41.347Z,30.20
2018-04-18T12:44:14.549Z,30.20
2018-04-18T12:48:47.829Z,30.20
2018-04-18T12:53:21.906Z,30.40
2018-04-18T12:57:55.091Z,30.40
2018-04-18T13:02:28.275Z,30.40
2018-04-18T13:07:02.250Z,30.20
2018-04-18T13:11:35.405Z,30.10
2018-04-18T13:16:20.741Z,29.80
2018-04-18T13:20:55.488Z,30.30
2018-04-18T13:25:28.869Z,30.30
2018-04-18T13:30:03.289Z,29.70
2018-04-18T13:34:37.288Z,29.70
2018-04-18T13:39:11.256Z,29.00
2018-04-18T13:43:44.473Z,29.00
2018-04-18T13:48:17.753Z,29.50
2018-04-18T13:52:51.734Z,29.60
2018-04-18T13:57:24.981Z,29.50
2018-04-18T14:01:59.001Z,28.10
2018-04-18T14:06:32.979Z,27.60
2018-04-18T14:11:06.183Z,27.50
2018-04-18T14:15:39.394Z,27.80
2018-04-18T14:20:12.575Z,27.70
2018-04-18T14:24:45.785Z,27.90
2018-04-18T14:29:19.163Z,27.80
2018-04-18T14:33:53.127Z,27.60
2018-04-18T14:38:26.659Z,27.60
2018-04-18T14:43:00.328Z,27.80
2018-04-18T14:47:34.958Z,27.50
2018-04-18T14:52:08.268Z,27.50
2018-04-18T14:56:41.468Z,27.50
2018-04-18T15:01:14.668Z,27.50
2018-04-18T15:05:47.862Z,27.20
2018-04-18T15:10:24.626Z,27.10
2018-04-18T15:14:58.122Z,26.80
2018-04-18T15:19:31.323Z,26.70
2018-04-18T15:24:04.505Z,26.80
2018-04-18T15:28:38.463Z,26.90
2018-04-18T15:33:11.645Z,26.80
2018-04-18T15:37:45.589Z,26.60
2018-04-18T15:42:18.767Z,26.50
2018-04-18T15:46:52.709Z,26.50
2018-04-18T15:51:25.947Z,26.40
2018-04-18T15:55:59.134Z,26.30
2018-04-18T16:00:32.983Z,26.30
2018-04-18T16:05:06.176Z,26.10
2018-04-18T16:09:39.362Z,26.10
2018-04-18T16:14:12.577Z,26.10
2018-04-18T16:18:45.855Z,26.10
2018-04-18T16:23:19.063Z,26.00
2018-04-18T16:27:52.986Z,25.90
2018-04-18T16:32:26.990Z,25.70
2018-04-18T16:37:00.166Z,25.60
2018-04-18T16:41:33.354Z,25.60
2018-04-18T16:46:06.550Z,25.70
2018-04-18T16:50:39.787Z,25.60
2018-04-18T16:55:12.973Z,25.40
2018-04-18T16:59:46.193Z,25.40
2018-04-18T17:04:19.391Z,25.30
2018-04-18T17:08:52.613Z,25.20
2018-04-18T17:13:25.837Z,25.10
2018-04-18T17:17:59.045Z,25.00
2018-04-18T17:22:32.233Z,24.90
2018-04-18T17:27:05.439Z,24.90
2018-04-18T17:31:38.674Z,24.70
2018-04-18T17:36:12.639Z,24.60
2018-04-18T17:40:45.877Z,24.50
2018-04-18T17:45:19.091Z,24.30
2018-04-18T17:49:52.268Z,24.30
2018-04-18T17:54:25.547Z,24.00
2018-04-18T17:58:59.534Z,23.70
2018-04-18T18:03:32.743Z,23.60
2018-04-18T18:08:05.961Z,23.40
2018-04-18T18:12:39.159Z,23.20
2018-04-18T18:17:12.367Z,23.10
2018-04-18T18:21:45.709Z,23.10
2018-04-18T18:26:19.700Z,23.10
2018-04-18T18:30:52.900Z,23.00
2018-04-18T18:35:26.119Z,22.90
2018-04-18T18:39:59.334Z,22.80
2018-04-18T18:44:33.287Z,22.50
2018-04-18T18:49:08.489Z,22.30
2018-04-18T18:53:41.677Z,22.20
2018-04-18T18:58:14.877Z,22.20
2018-04-18T19:02:48.093Z,22.00
2018-04-18T19:07:21.362Z,21.80
2018-04-18T19:11:55.300Z,21.40
2018-04-18T19:16:29.287Z,21.10
2018-04-18T19:21:03.273Z,20.40
2018-04-18T19:25:36.454Z,20.30
2018-04-18T19:30:10.412Z,19.50
2018-04-18T19:34:43.602Z,19.40
2018-04-18T19:39:16.862Z,19.20
2018-04-18T19:43:50.833Z,18.70
2018-04-18T19:48:24.050Z,18.60
2018-04-18T19:52:57.218Z,18.40
2018-04-18T19:57:31.176Z,17.80
2018-04-18T20:02:04.356Z,17.70
2018-04-18T20:06:38.343Z,17.20
2018-04-18T20:11:11.581Z,17.10
2018-04-18T20:15:45.530Z,17.00
2018-04-18T20:20:18.742Z,16.90
2018-04-18T20:24:53.478Z,16.70
2018-04-18T20:29:26.746Z,16.50
2018-04-18T20:33:59.983Z,16.10
2018-04-18T20:38:33.173Z,16.00
2018-04-18T20:43:06.381Z,15.90
2018-04-18T20:47:40.582Z,15.50
2018-04-18T20:52:13.777Z,15.40
2018-04-18T20:56:47.187Z,15.30
2018-04-18T21:01:20.387Z,15.10
2018-04-18T21:05:53.650Z,15.10
2018-04-18T21:10:27.755Z,15.00
2018-04-18T21:15:00.950Z,14.90
2018-04-18T21:19:34.110Z,14.90
2018-04-18T21:24:07.310Z,14.80
2018-04-18T21:28:40.498Z,14.70
2018-04-18T21:33:14.797Z,14.70
2018-04-18T21:37:47.978Z,14.60
2018-04-18T21:42:21.190Z,14.70
2018-04-18T21:46:54.375Z,14.60
2018-04-18T21:51:27.587Z,14.50
2018-04-18T21:56:00.772Z,14.40
2018-04-18T22:00:34.731Z,13.80
2018-04-18T22:05:07.951Z,13.70
2018-04-18T22:09:41.570Z,13.50
2018-04-18T22:14:14.778Z,13.50
2018-04-18T22:18:47.991Z,13.40
2018-04-18T22:23:21.189Z,13.20
2018-04-18T22:27:54.351Z,13.00
2018-04-18T22:32:27.545Z,13.00
2018-04-18T22:37:01.505Z,13.00
2018-04-18T22:41:34.682Z,12.90
2018-04-18T22:46:08.645Z,13.20
2018-04-18T22:50:41.834Z,13.10
2018-04-18T22:55:15.075Z,12.90
2018-04-18T22:59:48.275Z,12.60
2018-04-18T23:04:21.471Z,12.50
2018-04-18T23:08:54.677Z,12.70
2018-04-18T23:13:27.854Z,12.50
2018-04-18T23:18:01.073Z,12.40
2018-04-18T23:22:34.267Z,12.30
2018-04-18T23:27:07.458Z,12.10
2018-04-18T23:31:41.395Z,11.90
2018-04-18T23:36:14.578Z,11.80
2018-04-18T23:40:47.799Z,11.90
2018-04-18T23:45:21.782Z,11.60
2018-04-18T23:49:54.966Z,11.50
2018-04-18T23:54:28.198Z,11.50
2018-04-18T23:59:01.356Z,11.60
